Time;durP1;ratioP1;P1;durP2;ratioP2;P2;SDS_P1;SDS_P2;PMS_P1;PMS_P2;Temp;Humidity;BMP_temperature;BMP_pressure;BME280_temperature;BME280_humidity;BME280_pressure;Samples;Min_cycle;Max_cycle;Signal;HPM_P1;HPM_P2
2022/09/23 00:02:13;;;;;;;5.18;4.70;;;;;;;11.65;84.73;101734.03;10566455;28;20059;-69
2022/09/23 00:07:13;;;;;;;7.15;5.28;;;;;;;11.62;85.22;101728.97;10584635;28;20379;-70
2022/09/23 00:12:14;;;;;;;6.57;5.35;;;;;;;11.60;85.55;101725.59;10583166;28;20027;-69
2022/09/23 00:17:14;;;;;;;5.60;5.18;;;;;;;11.55;84.62;101728.84;10583084;28;20046;-70
2022/09/23 00:22:15;;;;;;;11.77;6.15;;;;;;;11.41;84.51;101716.94;10582327;28;20059;-70
2022/09/23 00:27:15;;;;;;;5.45;4.45;;;;;;;11.36;84.64;101723.94;10563962;28;20042;-69
2022/09/23 00:32:16;;;;;;;15.32;6.45;;;;;;;11.26;84.17;101716.03;10582975;28;20084;-70
2022/09/23 00:37:16;;;;;;;7.70;5.95;;;;;;;11.18;84.79;101713.41;10565302;28;20043;-69
2022/09/23 00:42:19;;;;;;;10.52;5.68;;;;;;;11.17;84.93;101703.59;10563296;28;20047;-71
2022/09/23 00:47:28;;;;;;;9.55;6.80;;;;;;;11.26;84.76;101715.19;10565482;28;20080;-71
2022/09/23 00:52:28;;;;;;;10.20;6.70;;;;;;;11.29;84.71;101707.53;10548256;28;20035;-71
2022/09/23 00:57:30;;;;;;;13.18;7.13;;;;;;;11.33;85.04;101703.47;10564981;28;20027;-71
2022/09/23 01:02:31;;;;;;;8.00;6.13;;;;;;;11.35;84.93;101706.81;10581907;28;20063;-71
2022/09/23 01:07:32;;;;;;;7.10;5.97;;;;;;;11.33;84.47;101705.31;10565089;28;20043;-71
2022/09/23 01:12:59;;;;;;;8.45;6.05;;;;;;;11.30;84.61;101703.81;10547177;28;20063;-71
2022/09/23 01:18:14;;;;;;;8.15;6.68;;;;;;;11.29;84.48;101701.28;10536683;28;20398;-71
2022/09/23 01:23:26;;;;;;;8.52;6.45;;;;;;;11.23;84.57;101694.72;10550410;28;20139;-71
2022/09/23 01:28:41;;;;;;;6.03;5.43;;;;;;;11.19;84.67;101687.97;10564584;28;20081;-71
2022/09/23 01:33:51;;;;;;;6.40;5.78;;;;;;;11.19;84.54;101690.69;10581805;28;20375;-71
2022/09/23 01:39:09;;;;;;;7.47;6.13;;;;;;;11.21;85.38;101676.97;10563813;28;20051;-71
2022/09/23 01:44:09;;;;;;;9.05;6.85;;;;;;;11.12;85.09;101657.19;10548171;28;20027;-71
2022/09/23 01:49:28;;;;;;;11.80;6.35;;;;;;;11.11;85.56;101667.22;10581679;28;20100;-71
2022/09/23 01:54:37;;;;;;;8.40;6.75;;;;;;;11.07;86.19;101665.91;10553909;28;20035;-71
2022/09/23 01:59:46;;;;;;;6.70;6.00;;;;;;;11.07;86.40;101662.31;10572136;28;20051;-71
2022/09/23 02:04:50;;;;;;;7.85;7.05;;;;;;;11.08;86.23;101656.72;10572311;28;20024;-71
2022/09/23 02:09:56;;;;;;;7.35;6.57;;;;;;;11.18;87.38;101651.06;10588036;28;20114;-71
2022/09/23 02:15:14;;;;;;;8.93;7.03;;;;;;;11.27;86.97;101649.13;10554089;28;20444;-71
2022/09/23 02:20:19;;;;;;;10.88;6.53;;;;;;;11.26;85.98;101658.25;10555600;28;20027;-71
2022/09/23 02:25:20;;;;;;;10.25;7.18;;;;;;;11.22;85.69;101648.81;10555618;28;20031;-71
2022/09/23 02:30:25;;;;;;;10.48;6.53;;;;;;;11.25;86.01;101648.44;10557423;28;20050;-71
2022/09/23 02:35:43;;;;;;;7.70;6.93;;;;;;;11.31;86.08;101639.59;10570307;28;20035;-71
2022/09/23 02:40:44;;;;;;;6.95;6.32;;;;;;;11.33;86.03;101637.53;10569089;28;20048;-71
2022/09/23 02:45:45;;;;;;;9.63;8.70;;;;;;;11.38;86.45;101630.50;10588247;28;20111;-71
2022/09/23 02:50:46;;;;;;;10.38;7.75;;;;;;;11.44;86.21;101618.09;10552123;28;20023;-72
2022/09/23 02:55:47;;;;;;;9.98;7.07;;;;;;;11.47;85.93;101617.72;10568877;28;20039;-71
2022/09/23 03:01:14;;;;;;;7.25;5.78;;;;;;;11.50;86.01;101617.34;10568803;28;20084;-71
2022/09/23 03:06:29;;;;;;;10.60;6.68;;;;;;;11.51;85.49;101604.63;10568672;28;20027;-71
2022/09/23 03:11:31;;;;;;;7.78;6.85;;;;;;;11.55;85.96;101603.22;10535418;28;20440;-71
2022/09/23 03:16:42;;;;;;;8.82;7.05;;;;;;;11.59;85.73;101605.38;10585234;28;20036;-71
2022/09/23 03:21:45;;;;;;;7.75;6.75;;;;;;;11.63;85.58;101605.84;10551552;28;20035;-71
2022/09/23 03:26:46;;;;;;;8.60;7.13;;;;;;;11.64;85.61;101600.22;10585433;28;20028;-72
2022/09/23 03:31:46;;;;;;;8.57;6.75;;;;;;;11.67;85.96;101599.00;10550797;28;20031;-72
2022/09/23 03:36:51;;;;;;;8.65;7.80;;;;;;;11.69;85.62;101599.66;10550950;28;20096;-71
2022/09/23 03:41:51;;;;;;;8.23;7.43;;;;;;;11.76;86.09;101592.47;10568161;28;20039;-71
2022/09/23 03:46:52;;;;;;;10.88;7.05;;;;;;;11.81;86.20;101591.91;10567625;28;20031;-71
2022/09/23 03:51:55;;;;;;;7.85;6.18;;;;;;;11.91;85.70;101586.22;10584165;28;20036;-71
2022/09/23 03:56:56;;;;;;;6.35;5.75;;;;;;;11.95;85.77;101576.66;10584716;28;20027;-71
2022/09/23 04:01:58;;;;;;;7.68;6.88;;;;;;;11.99;86.09;101567.09;10567061;28;20034;-71
2022/09/23 04:06:58;;;;;;;10.80;6.63;;;;;;;12.05;85.97;101563.63;10566795;28;20383;-71
2022/09/23 04:11:59;;;;;;;10.18;6.85;;;;;;;12.09;86.48;101562.19;10566001;28;20035;-71
2022/09/23 04:17:00;;;;;;;7.47;6.00;;;;;;;12.15;nan;101566.84;10583176;28;20066;-72
2022/09/23 04:22:00;;;;;;;7.57;6.55;;;;;;;12.21;86.10;101563.38;10583076;28;20035;-72
2022/09/23 04:27:01;;;;;;;8.20;6.32;;;;;;;12.25;85.79;101566.56;10582039;28;20491;-71
2022/09/23 04:32:01;;;;;;;7.00;5.75;;;;;;;12.26;86.03;101562.81;10565110;28;20027;-72
2022/09/23 04:37:01;;;;;;;8.13;6.85;;;;;;;12.26;85.96;101552.78;10583754;28;20054;-72
2022/09/23 04:42:03;;;;;;;8.15;6.47;;;;;;;12.28;85.79;101556.16;10582997;28;20027;-72
2022/09/23 04:47:03;;;;;;;11.57;6.28;;;;;;;12.31;85.93;101558.47;10582735;28;20072;-72
2022/09/23 04:52:04;;;;;;;7.57;6.85;;;;;;;12.30;86.13;101559.50;10585865;28;20048;-71
2022/09/23 04:57:04;;;;;;;8.10;6.88;;;;;;;12.33;86.09;101564.56;10583423;28;20028;-72
2022/09/23 05:02:05;;;;;;;10.73;6.55;;;;;;;12.36;86.39;101555.19;10583634;28;20039;-71
2022/09/23 05:07:05;;;;;;;7.13;6.43;;;;;;;12.39;86.19;101556.69;10582350;28;20038;-72
2022/09/23 05:12:06;;;;;;;12.48;6.95;;;;;;;12.43;86.26;101557.97;10582664;28;20039;-71
2022/09/23 05:17:06;;;;;;;7.70;6.07;;;;;;;12.46;85.83;101558.41;10582101;28;20042;-71
2022/09/23 05:22:07;;;;;;;20.35;6.70;;;;;;;12.51;86.06;101561.41;10581749;28;20039;-71
2022/09/23 05:27:07;;;;;;;10.52;6.25;;;;;;;12.56;86.39;101564.38;10585820;28;20093;-72
2022/09/23 05:32:08;;;;;;;7.45;6.07;;;;;;;12.60;86.11;101564.81;10590851;28;20038;-72
2022/09/23 05:37:09;;;;;;;9.85;8.38;;;;;;;12.61;85.91;101566.53;10590502;28;20245;-72
2022/09/23 05:42:11;;;;;;;11.23;7.43;;;;;;;12.61;86.21;101569.22;10571673;28;20035;-71
2022/09/23 05:47:11;;;;;;;12.00;8.88;;;;;;;12.65;86.39;101566.97;10589860;28;20348;-70
2022/09/23 05:52:12;;;;;;;7.03;6.43;;;;;;;12.70;86.36;101562.63;10590559;28;20059;-72
2022/09/23 05:57:12;;;;;;;7.25;6.40;;;;;;;12.77;86.73;101568.13;10589905;28;20043;-71
2022/09/23 06:02:13;;;;;;;11.05;7.43;;;;;;;12.84;86.94;101569.03;10589712;28;20061;-71
2022/09/23 06:07:13;;;;;;;19.42;8.55;;;;;;;12.94;86.85;101563.25;10588833;28;20036;-72
2022/09/23 06:12:14;;;;;;;8.68;7.32;;;;;;;13.03;87.51;101562.06;10588650;28;20390;-71
2022/09/23 06:17:14;;;;;;;8.95;7.50;;;;;;;13.11;86.93;101564.63;10589053;28;20035;-71
2022/09/23 06:22:16;;;;;;;15.23;8.02;;;;;;;13.24;87.42;101555.72;10588889;28;20044;-71
2022/09/23 06:27:17;;;;;;;17.40;8.65;;;;;;;13.34;87.16;101561.69;10569829;28;20035;-71
2022/09/23 06:32:18;;;;;;;14.90;9.15;;;;;;;13.47;88.04;101555.50;10587029;28;20344;-72
2022/09/23 06:37:19;;;;;;;18.45;10.80;;;;;;;13.59;87.84;101555.75;10585356;28;20052;-71
2022/09/23 06:42:19;;;;;;;9.57;8.73;;;;;;;13.73;88.12;101549.34;10569261;28;20039;-72
2022/09/23 06:47:19;;;;;;;20.30;8.80;;;;;;;13.91;87.59;101543.31;10587265;28;20492;-71
2022/09/23 06:52:20;;;;;;;12.20;8.50;;;;;;;14.06;87.93;101549.44;10568209;28;20076;-71
2022/09/23 06:57:20;;;;;;;16.92;9.00;;;;;;;14.26;86.99;101551.38;10568902;28;20478;-71
2022/09/23 07:02:21;;;;;;;27.88;8.98;;;;;;;14.42;86.93;101548.28;10586890;28;20520;-71
2022/09/23 07:07:21;;;;;;;21.45;10.43;;;;;;;14.59;87.18;101552.34;10569096;28;20387;-72
2022/09/23 07:12:22;;;;;;;17.35;8.00;;;;;;;14.79;87.03;101552.34;10568249;28;20188;-71
2022/09/23 07:17:25;;;;;;;17.88;7.32;;;;;;;15.08;87.22;101550.22;10587011;28;20375;-71
2022/09/23 07:22:25;;;;;;;18.80;9.13;;;;;;;15.23;87.04;101547.28;10586504;28;20161;-72
2022/09/23 07:27:26;;;;;;;9.18;7.60;;;;;;;15.26;86.84;101544.97;10585704;28;20500;-72
2022/09/23 07:32:26;;;;;;;16.48;9.10;;;;;;;15.31;86.65;101544.31;10567895;28;20028;-72
2022/09/23 07:37:27;;;;;;;10.02;8.43;;;;;;;15.29;86.55;101546.44;10567254;28;20052;-72
2022/09/23 07:42:27;;;;;;;14.27;8.25;;;;;;;15.41;86.73;101546.59;10585228;28;20032;-72
2022/09/23 07:47:28;;;;;;;12.52;8.68;;;;;;;15.53;86.69;101548.44;10567103;28;20040;-71
2022/09/23 07:52:28;;;;;;;14.50;8.68;;;;;;;15.78;86.42;101542.31;10583609;28;20359;-72
2022/09/23 07:57:28;;;;;;;14.05;8.27;;;;;;;15.94;86.40;101546.44;10585722;28;20039;-72
2022/09/23 08:02:29;;;;;;;20.15;8.35;;;;;;;16.12;86.04;101562.97;10584910;28;20467;-71
2022/09/23 08:07:30;;;;;;;12.15;7.15;;;;;;;16.26;85.29;101545.41;10584159;28;20448;-71
2022/09/23 08:12:30;;;;;;;12.18;7.32;;;;;;;16.35;85.66;101554.22;10583871;28;20049;-71
2022/09/23 08:17:30;;;;;;;10.50;8.27;;;;;;;16.51;84.64;101553.69;10584957;28;20102;-71
2022/09/23 08:22:31;;;;;;;15.18;8.45;;;;;;;16.79;84.54;101565.31;10583979;28;20478;-72
2022/09/23 08:27:32;;;;;;;10.70;7.05;;;;;;;17.03;84.33;101556.25;10582990;28;20039;-72
2022/09/23 08:32:32;;;;;;;16.27;9.27;;;;;;;17.31;84.19;101553.03;10582965;28;20387;-72
2022/09/23 08:37:32;;;;;;;7.43;6.30;;;;;;;17.58;84.04;101556.31;10564878;28;20063;-72
2022/09/23 08:42:33;;;;;;;16.85;7.78;;;;;;;17.59;82.84;101558.00;10565219;28;20042;-72
2022/09/23 08:47:39;;;;;;;8.05;5.90;;;;;;;17.78;83.03;101560.75;10548272;28;20027;-71
2022/09/23 08:53:06;;;;;;;8.95;7.40;;;;;;;17.88;82.93;101563.78;10582813;28;20027;-72
2022/09/23 08:58:20;;;;;;;8.07;6.50;;;;;;;17.87;83.30;101554.75;10566213;28;20035;-72
2022/09/23 09:03:27;;;;;;;23.45;7.10;;;;;;;18.04;83.08;101565.06;10582720;28;20031;-72
2022/09/23 09:08:31;;;;;;;10.63;6.15;;;;;;;18.00;82.85;101558.38;10564571;28;20032;-72
2022/09/23 09:13:42;;;;;;;11.88;6.57;;;;;;;18.04;82.08;101565.91;10564555;28;20515;-72
2022/09/23 09:18:52;;;;;;;8.05;6.30;;;;;;;18.46;81.46;101554.97;10565408;28;20115;-72
2022/09/23 09:23:55;;;;;;;11.68;6.97;;;;;;;18.50;76.54;101555.34;10564072;28;20042;-72
2022/09/23 09:29:02;;;;;;;7.82;5.95;;;;;;;18.61;78.34;101562.78;10581878;28;20032;-72
2022/09/23 09:34:05;;;;;;;13.38;7.38;;;;;;;18.48;78.72;101552.00;10582720;28;20023;-72
2022/09/23 09:39:06;;;;;;;8.45;6.22;;;;;;;18.56;79.39;101546.16;10583102;28;20054;-72
2022/09/23 09:44:23;;;;;;;7.18;6.32;;;;;;;18.76;79.40;101554.09;10547704;28;20036;-72
2022/09/23 09:49:57;;;;;;;7.40;6.63;;;;;;;18.87;79.31;101546.97;10565279;28;20402;-72
2022/09/23 09:55:16;;;;;;;10.38;6.80;;;;;;;18.74;78.64;101535.16;10582037;28;20034;-71
2022/09/23 10:00:25;;;;;;;11.63;8.13;;;;;;;18.81;78.60;101537.78;10564743;28;20114;-72
2022/09/23 10:05:44;;;;;;;12.88;7.00;;;;;;;18.87;79.05;101531.34;10582321;28;20027;-72
2022/09/23 10:11:01;;;;;;;10.18;8.25;;;;;;;18.86;78.70;101532.44;10581119;28;20028;-72
2022/09/23 10:16:02;;;;;;;7.15;6.43;;;;;;;18.57;76.60;101537.72;10587567;28;20035;-71
2022/09/23 10:21:14;;;;;;;9.35;7.25;;;;;;;18.50;78.01;101527.91;10553597;28;20035;-72
2022/09/23 10:26:17;;;;;;;11.80;7.07;;;;;;;18.48;78.28;101527.31;10570736;28;20402;-72
2022/09/23 10:31:31;;;;;;;8.07;7.22;;;;;;;18.47;78.05;101522.91;10569056;28;20035;-72
2022/09/23 10:36:32;;;;;;;15.23;8.32;;;;;;;18.53;77.49;101524.69;10586509;28;20027;-71
2022/09/23 10:47:36;;;;;;;12.15;6.47;;;;;;;19.02;76.80;101514.41;10558072;28;20116;-72
2022/09/23 10:53:12;;;;;;;10.65;7.30;;;;;;;19.37;73.84;101519.88;10554543;28;20043;-72
2022/09/23 10:58:12;;;;;;;10.18;7.22;;;;;;;19.54;74.52;101506.22;10513969;28;20474;-72
2022/09/23 11:03:53;;;;;;;10.02;7.15;;;;;;;19.91;72.86;101508.63;10586857;28;20032;-71
2022/09/23 11:09:13;;;;;;;11.32;7.65;;;;;;;20.14;68.82;101508.56;10586185;28;20032;-72
2022/09/23 11:14:44;;;;;;;10.60;7.30;;;;;;;20.90;70.91;101503.56;10586314;28;20026;-72
2022/09/23 11:19:55;;;;;;;12.00;7.85;;;;;;;21.35;67.20;101499.00;10587219;28;20031;-72
2022/09/23 11:25:01;;;;;;;9.25;6.55;;;;;;;21.61;69.13;101491.06;10569088;28;20508;-72
2022/09/23 11:30:06;;;;;;;13.52;6.43;;;;;;;21.88;65.77;101497.44;10567640;28;20047;-72
2022/09/23 11:35:21;;;;;;;22.80;7.43;;;;;;;22.05;64.53;101495.44;10551551;28;20031;-72
2022/09/23 11:40:32;;;;;;;7.35;6.22;;;;;;;22.65;61.06;101487.16;10586412;28;20505;-72
2022/09/23 11:45:45;;;;;;;14.07;7.78;;;;;;;23.23;56.83;101484.53;10567436;28;20424;-72
2022/09/23 11:50:46;;;;;;;7.82;6.35;;;;;;;23.87;58.30;101478.75;10552023;28;20076;-72
2022/09/23 11:55:51;;;;;;;5.72;5.22;;;;;;;22.81;58.06;101477.06;10586120;28;20089;-72
2022/09/23 12:00:58;;;;;;;12.88;6.80;;;;;;;22.38;64.85;101465.97;10568521;28;20367;-73
2022/09/23 12:06:01;;;;;;;6.70;4.53;;;;;;;21.89;64.81;101463.28;10586650;28;20035;-72
2022/09/23 12:11:24;;;;;;;4.32;3.45;;;;;;;21.74;67.60;101465.84;10587600;28;20063;-72
2022/09/23 12:16:31;;;;;;;11.32;6.57;;;;;;;21.30;67.33;101458.41;10553999;28;20107;-72
2022/09/23 12:21:56;;;;;;;6.63;5.97;;;;;;;21.53;69.02;101462.84;10550589;28;20443;-72
2022/09/23 12:26:58;;;;;;;13.77;4.75;;;;;;;21.58;68.87;101453.81;10583875;28;20081;-72
2022/09/23 12:32:00;;;;;;;8.23;5.15;;;;;;;21.22;68.17;101447.84;10565121;28;20027;-72
2022/09/23 12:37:02;;;;;;;5.22;4.72;;;;;;;21.00;66.27;101444.22;10563678;28;20443;-72
2022/09/23 12:42:03;;;;;;;5.68;4.85;;;;;;;20.90;70.57;101445.75;10565977;28;20104;-72
2022/09/23 12:47:35;;;;;;;7.15;5.22;;;;;;;21.10;70.00;101447.94;10583402;28;20383;-72
2022/09/23 12:52:36;;;;;;;13.43;6.32;;;;;;;21.29;69.81;101436.63;10564235;28;20035;-72
2022/09/23 12:57:36;;;;;;;8.38;6.93;;;;;;;21.00;69.54;101450.56;10583275;28;20471;-72
2022/09/23 13:02:46;;;;;;;6.30;5.00;;;;;;;20.93;70.51;101438.03;10582392;28;20122;-72
2022/09/23 13:07:47;;;;;;;14.50;6.30;;;;;;;20.66;71.20;101434.09;10565143;28;20082;-72
2022/09/23 13:12:47;;;;;;;5.72;5.22;;;;;;;20.61;71.34;101431.28;10564773;28;20059;-72
2022/09/23 13:17:48;;;;;;;7.78;5.00;;;;;;;20.64;72.37;101428.03;10563322;28;20459;-72
2022/09/23 13:22:48;;;;;;;13.45;6.25;;;;;;;20.36;73.63;101431.66;10582393;28;20063;-72
2022/09/23 13:27:51;;;;;;;6.90;5.55;;;;;;;20.08;73.45;101423.47;10581794;28;20080;-72
2022/09/23 13:33:11;;;;;;;7.15;6.05;;;;;;;19.95;74.91;101421.88;10563850;28;20410;-72
2022/09/23 13:38:25;;;;;;;8.57;6.85;;;;;;;19.83;75.06;101427.44;10564048;28;20051;-72
2022/09/23 13:43:43;;;;;;;12.23;7.47;;;;;;;19.39;76.34;101418.00;10564457;28;20532;-72
2022/09/23 13:48:46;;;;;;;6.80;6.05;;;;;;;19.31;77.08;101419.25;10568820;28;20030;-72
2022/09/23 13:53:54;;;;;;;9.65;7.05;;;;;;;19.11;77.38;101419.63;10554369;28;20363;-72
2022/09/23 13:59:14;;;;;;;8.57;6.95;;;;;;;18.99;78.34;101416.09;10571359;28;20148;-72
2022/09/23 14:04:24;;;;;;;13.95;8.75;;;;;;;18.96;78.41;101411.91;10588737;28;20038;-72
2022/09/23 14:09:26;;;;;;;13.00;7.90;;;;;;;18.95;78.82;101398.41;10570817;28;20043;-72
2022/09/23 14:14:27;;;;;;;14.50;8.25;;;;;;;19.02;79.28;101399.13;10570599;28;20077;-72
2022/09/23 14:19:27;;;;;;;10.50;8.32;;;;;;;18.99;79.16;101392.22;10570458;28;20168;-72
2022/09/23 14:24:32;;;;;;;9.20;8.30;;;;;;;19.00;79.56;101382.91;10570446;28;20023;-72
2022/09/23 14:29:34;;;;;;;13.18;9.38;;;;;;;19.07;79.89;101377.28;10555561;28;20381;-72
2022/09/23 14:34:59;;;;;;;9.80;8.38;;;;;;;19.08;80.30;101378.09;10569515;28;20035;-72
2022/09/23 14:40:00;;;;;;;11.15;8.05;;;;;;;18.84;80.59;101380.91;10589345;28;20047;-72
2022/09/23 14:45:00;;;;;;;10.70;8.45;;;;;;;18.56;81.07;101378.84;10586106;28;20042;-72
2022/09/23 14:55:20;;;;;;;12.35;10.00;;;;;;;18.03;83.22;101366.91;10586868;28;20471;-72
2022/09/23 15:00:21;;;;;;;10.57;9.45;;;;;;;17.95;83.80;101367.25;10568748;28;20036;-72
2022/09/23 15:05:22;;;;;;;12.93;9.15;;;;;;;17.78;86.15;101364.34;10569142;28;20063;-72
2022/09/23 15:10:31;;;;;;;13.35;9.65;;;;;;;17.61;86.19;101357.81;10586923;28;20051;-72
2022/09/23 15:15:31;;;;;;;16.30;9.73;;;;;;;17.44;86.08;101361.22;10568194;28;20092;-71
2022/09/23 15:20:32;;;;;;;20.13;10.73;;;;;;;17.11;89.86;101371.78;10568029;28;20540;-70
2022/09/23 15:25:34;;;;;;;12.30;10.23;;;;;;;16.81;88.75;101375.25;10551018;28;20036;-69
2022/09/23 15:30:35;;;;;;;12.52;11.35;;;;;;;16.63;90.20;101369.78;10567733;28;20032;-70
2022/09/23 15:35:35;;;;;;;10.93;9.10;;;;;;;16.39;98.67;101371.47;10567736;28;20039;-70
2022/09/23 15:40:36;;;;;;;11.40;10.30;;;;;;;16.34;97.76;101374.88;10566718;28;20055;-70
2022/09/23 15:45:39;;;;;;;18.65;9.30;;;;;;;16.33;96.81;101373.19;10566130;28;20027;-70
2022/09/23 15:50:44;;;;;;;10.05;8.55;;;;;;;16.33;94.99;101370.47;10566968;28;20039;-70
2022/09/23 15:55:44;;;;;;;8.23;6.75;;;;;;;16.29;95.11;101369.25;10567169;28;20479;-70
2022/09/23 16:00:52;;;;;;;10.23;6.05;;;;;;;16.19;95.79;101363.44;10586092;28;20047;-71
2022/09/23 16:06:01;;;;;;;11.38;5.88;;;;;;;16.11;95.49;101363.72;10566708;28;20027;-70
2022/09/23 16:11:01;;;;;;;7.68;5.40;;;;;;;16.06;95.26;101361.66;10567351;28;20032;-71
2022/09/23 16:16:02;;;;;;;7.05;5.57;;;;;;;16.04;95.27;101358.31;10565725;28;20032;-71
2022/09/23 16:21:03;;;;;;;6.88;6.20;;;;;;;15.98;95.80;101351.84;10583765;28;20122;-71
2022/09/23 16:26:07;;;;;;;8.10;6.95;;;;;;;15.96;95.77;101342.22;10565601;28;20020;-71
2022/09/23 16:31:09;;;;;;;7.68;6.68;;;;;;;15.92;96.20;101347.28;10583542;28;20081;-72
2022/09/23 16:36:22;;;;;;;9.20;5.80;;;;;;;15.87;96.07;101341.63;10564754;28;20446;-72
2022/09/23 16:41:28;;;;;;;7.88;6.32;;;;;;;15.86;96.56;101337.25;10585819;28;20061;-72
2022/09/23 16:46:28;;;;;;;9.13;6.73;;;;;;;15.77;98.41;101339.41;10583503;28;20129;-72
2022/09/23 16:51:32;;;;;;;8.88;5.75;;;;;;;15.78;98.02;101341.06;10550148;28;20506;-73
2022/09/23 16:56:33;;;;;;;9.85;6.65;;;;;;;15.76;99.60;101331.41;10583594;28;20032;-72
2022/09/23 17:06:53;;;;;;;9.88;6.32;;;;;;;15.73;98.69;101329.13;10582044;28;20437;-72
2022/09/23 17:12:25;;;;;;;9.52;5.50;;;;;;;15.68;98.86;101335.25;10564135;28;20057;-72
2022/09/23 17:17:27;;;;;;;11.38;7.45;;;;;;;15.66;99.25;101325.59;10570899;28;20039;-72
2022/09/23 17:22:28;;;;;;;8.25;7.45;;;;;;;15.70;99.08;101337.78;10585826;28;20023;-72
2022/09/23 17:27:30;;;;;;;8.05;7.25;;;;;;;15.66;98.73;101331.03;10590353;28;20031;-73
2022/09/23 17:32:30;;;;;;;12.20;6.70;;;;;;;15.58;99.34;101330.25;10555580;28;20481;-73
2022/09/23 17:37:32;;;;;;;12.02;9.10;;;;;;;15.57;99.57;101323.13;10572244;28;20052;-73
2022/09/23 17:42:33;;;;;;;14.68;8.25;;;;;;;15.55;99.88;101317.06;10572358;28;20115;-72
2022/09/23 17:47:34;;;;;;;12.48;8.82;;;;;;;15.50;100.00;101325.06;10555875;28;20058;-73
2022/09/23 17:52:34;;;;;;;13.35;10.25;;;;;;;15.51;100.00;101317.72;10590368;28;20038;-73
2022/09/23 17:57:34;;;;;;;17.67;12.93;;;;;;;15.54;100.00;101318.13;10571462;28;20070;-73
2022/09/23 18:02:35;;;;;;;17.73;11.07;;;;;;;15.61;100.00;101323.53;10588887;28;20042;-72
2022/09/23 18:07:35;;;;;;;16.08;11.02;;;;;;;15.67;100.00;101317.22;10572310;28;20047;-72
2022/09/23 18:12:36;;;;;;;18.15;13.82;;;;;;;15.70;100.00;101321.41;10590274;28;20024;-72
2022/09/23 18:17:36;;;;;;;15.93;14.23;;;;;;;15.52;100.00;101336.59;10571942;28;20040;-71
2022/09/23 18:22:36;;;;;;;17.88;10.25;;;;;;;15.07;100.00;101353.00;10588824;28;20364;-72
2022/09/23 18:27:37;;;;;;;19.60;11.70;;;;;;;14.85;100.00;101352.44;10570169;28;20070;-71
2022/09/23 18:32:37;;;;;;;14.20;10.75;;;;;;;14.74;100.00;101352.25;10587317;28;20055;-71
2022/09/23 18:37:38;;;;;;;12.20;9.45;;;;;;;14.65;100.00;101352.50;10588130;28;20473;-72
2022/09/23 18:42:39;;;;;;;13.52;9.70;;;;;;;14.57;100.00;101363.63;10569704;28;20028;-72
2022/09/23 18:52:58;;;;;;;11.85;10.43;;;;;;;14.42;100.00;101354.81;10587451;28;20035;-72
2022/09/23 18:57:59;;;;;;;13.05;10.30;;;;;;;14.36;100.00;101358.41;10569711;28;20032;-73
2022/09/23 19:02:59;;;;;;;20.45;10.20;;;;;;;14.34;100.00;101357.78;10585956;28;20036;-73
2022/09/23 19:08:00;;;;;;;9.10;8.13;;;;;;;14.28;100.00;101356.72;10587024;28;20072;-73
2022/09/23 19:13:00;;;;;;;8.50;7.60;;;;;;;14.19;100.00;101355.25;10588186;28;20031;-72
2022/09/23 19:18:00;;;;;;;10.10;8.48;;;;;;;14.17;100.00;101343.75;10587283;28;20584;-73
2022/09/23 19:23:01;;;;;;;9.35;7.53;;;;;;;14.11;100.00;101339.97;10585578;28;20062;-73
2022/09/23 19:28:04;;;;;;;12.63;8.07;;;;;;;14.10;100.00;101346.47;10567829;28;20035;-73
2022/09/23 19:33:05;;;;;;;10.10;8.55;;;;;;;14.11;100.00;101339.97;10585817;28;20444;-73
2022/09/23 19:38:05;;;;;;;7.43;6.40;;;;;;;14.06;100.00;101338.91;10567806;28;20058;-73
2022/09/23 19:43:06;;;;;;;10.98;5.75;;;;;;;14.04;100.00;101338.28;10586021;28;20379;-73
2022/09/23 19:48:07;;;;;;;7.45;5.80;;;;;;;14.02;100.00;101329.50;10567386;28;20036;-72
2022/09/23 19:53:08;;;;;;;6.47;5.88;;;;;;;14.03;100.00;101332.00;10585019;28;20531;-73
2022/09/23 19:58:08;;;;;;;8.13;6.47;;;;;;;14.04;100.00;101333.69;10567346;28;20039;-73
2022/09/23 20:03:09;;;;;;;7.03;6.32;;;;;;;14.01;100.00;101325.94;10584727;28;20115;-73
2022/09/23 20:08:09;;;;;;;10.82;6.45;;;;;;;13.99;100.00;101319.88;10585579;28;20493;-72
2022/09/23 20:13:09;;;;;;;8.38;6.85;;;;;;;13.98;100.00;101312.75;10585296;28;20032;-74
2022/09/23 20:18:10;;;;;;;10.18;7.55;;;;;;;13.98;100.00;101320.94;10582847;28;20440;-73
2022/09/23 20:23:10;;;;;;;8.18;5.68;;;;;;;14.00;100.00;101317.97;10583915;28;20073;-73
2022/09/23 20:28:10;;;;;;;11.73;7.50;;;;;;;14.00;100.00;101321.53;10582492;28;20036;-73
2022/09/23 20:33:13;;;;;;;10.13;7.85;;;;;;;14.04;100.00;101311.06;10583474;28;20406;-73
2022/09/23 20:38:14;;;;;;;14.13;9.90;;;;;;;14.03;100.00;101309.38;10584215;28;20062;-73
2022/09/23 20:43:14;;;;;;;12.10;10.80;;;;;;;14.04;100.00;101314.63;10583173;28;20046;-74
2022/09/23 20:48:15;;;;;;;13.75;11.32;;;;;;;14.05;100.00;101302.69;10582829;28;20038;-74
2022/09/23 20:53:17;;;;;;;18.70;14.82;;;;;;;14.07;100.00;101306.06;10583237;28;20027;-73
2022/09/23 20:58:17;;;;;;;19.45;14.02;;;;;;;14.09;100.00;101303.94;10564243;28;20032;-73
2022/09/23 21:03:17;;;;;;;17.30;13.13;;;;;;;14.12;100.00;101302.69;10582538;28;20031;-73
2022/09/23 21:08:18;;;;;;;19.80;15.50;;;;;;;14.14;100.00;101293.25;10584196;28;20062;-73
2022/09/23 21:13:19;;;;;;;19.30;13.93;;;;;;;14.17;100.00;101287.38;10582912;28;20040;-73
2022/09/23 21:18:19;;;;;;;16.02;13.23;;;;;;;14.17;100.00;101290.13;10582795;28;20047;-72
2022/09/23 21:23:23;;;;;;;16.98;14.38;;;;;;;14.12;100.00;101287.19;10581630;28;20071;-73
2022/09/23 21:28:24;;;;;;;18.60;15.05;;;;;;;14.16;100.00;101282.97;10581595;28;20035;-73
2022/09/23 21:33:24;;;;;;;16.60;13.57;;;;;;;14.19;100.00;101279.00;10583599;28;20035;-73
2022/09/23 21:38:24;;;;;;;27.63;16.40;;;;;;;14.25;100.00;101278.16;10582686;28;20060;-72
2022/09/23 21:43:26;;;;;;;21.85;16.10;;;;;;;14.24;100.00;101279.19;10583150;28;20085;-73
2022/09/23 21:48:31;;;;;;;22.75;19.63;;;;;;;14.22;100.00;101266.84;10581938;28;20036;-72
2022/09/23 21:53:32;;;;;;;24.88;21.30;;;;;;;14.21;100.00;101268.72;10580528;28;20110;-72
2022/09/23 21:58:33;;;;;;;24.08;19.52;;;;;;;14.19;100.00;101260.75;10581673;28;20039;-72
2022/09/23 22:03:33;;;;;;;27.58;19.27;;;;;;;14.24;100.00;101267.47;10581550;28;20039;-73
2022/09/23 22:08:39;;;;;;;22.58;19.75;;;;;;;14.24;100.00;101262.84;10582766;28;20027;-73
2022/09/23 22:13:39;;;;;;;26.67;20.65;;;;;;;14.23;100.00;101257.59;10590177;28;20031;-73
2022/09/23 22:18:40;;;;;;;18.65;16.55;;;;;;;14.19;100.00;101251.75;10588998;28;20407;-73
2022/09/23 22:23:40;;;;;;;21.50;18.48;;;;;;;14.17;100.00;101257.44;10570633;28;20035;-73
2022/09/23 22:33:59;;;;;;;20.25;13.65;;;;;;;14.08;100.00;101247.81;10572352;28;20032;-73
2022/09/23 22:39:01;;;;;;;19.25;13.40;;;;;;;14.07;100.00;101256.16;10587969;28;20060;-73
2022/09/23 22:44:02;;;;;;;16.88;12.57;;;;;;;14.03;100.00;101244.88;10570282;28;20032;-73
2022/09/23 22:49:07;;;;;;;14.50;12.07;;;;;;;14.07;100.00;101248.88;10587672;28;20035;-73
2022/09/23 22:54:08;;;;;;;16.08;14.40;;;;;;;14.07;100.00;101243.41;10588120;28;20085;-73
2022/09/23 22:59:09;;;;;;;13.20;11.60;;;;;;;14.04;100.00;101240.25;10568660;28;20038;-73
2022/09/23 23:04:11;;;;;;;16.80;13.65;;;;;;;14.01;100.00;101232.50;10569715;28;20050;-73
2022/09/23 23:09:15;;;;;;;14.00;12.00;;;;;;;14.02;100.00;101231.47;10568926;28;20032;-73
2022/09/23 23:14:16;;;;;;;16.98;12.07;;;;;;;13.98;100.00;101222.06;10587281;28;20031;-73
2022/09/23 23:19:17;;;;;;;14.48;11.75;;;;;;;13.96;100.00;101233.16;10567946;28;20395;-73
2022/09/23 23:24:19;;;;;;;18.60;14.20;;;;;;;13.92;100.00;101226.47;10569360;28;20036;-73
2022/09/23 23:29:20;;;;;;;15.48;13.45;;;;;;;13.84;100.00;101211.16;10586788;28;20051;-73